Platitera Tonouranon — SX7180 — position and weather

sailwx.info

Track history (hours):
 
Tides and Currents Weather Stations Pressure Air Temp Water Temp Dewpoint Dewpoint Depression Visibility Wind Speed Wind Dir Waves Ship Positions

Platitera Tonouranon

Last reported at 2014-Jul-25 16:33 UTC. Time now 2014-Jul-25 18:25 UTC.
Position N 37°56' E 023°41'.

; draft 3.8 m.

Type: Ship (hazmat cat A). MMSI: 237038200.

Date/timePositionNaut miles runAvg speedWind from/ knotsBaromVisibWave heightAir tempDewpointWater temp
2014-Jul-25 16:33N 37°56' E 023°41'1211.8
2014-Jul-25 15:33N 37°49' E 023°29'11 3.6
2014-Jul-25 12:31N 37°38' E 023°25'17 2.4
2014-Jul-25 05:33N 37°52' E 023°38'5 4.8
2014-Jul-25 04:33N 37°56' E 023°41'0 0.0
2014-Jul-24 16:33N 37°56' E 023°41'1111.1
2014-Jul-24 15:33N 37°49' E 023°30'6 5.5
2014-Jul-24 14:31N 37°45' E 023°26'0 0.0
2014-Jul-24 13:33N 37°45' E 023°26'6 6.3
2014-Jul-24 12:33N 37°38' E 023°25'16 2.3
2014-Jul-24 05:31N 37°51' E 023°38'5 5.5
2014-Jul-24 04:33N 37°56' E 023°41'3 0.2
2014-Jul-23 16:33N 37°54' E 023°38'1212.0
2014-Jul-23 15:33N 37°47' E 023°26'2 2.0
2014-Jul-23 14:30N 37°45' E 023°26'0 0.0
2014-Jul-23 13:33N 37°45' E 023°26'8 7.6
2014-Jul-23 12:33N 37°37' E 023°26'10 1.6
2014-Jul-23 06:10N 37°45' E 023°35'711.7
2014-Jul-23 05:33N 37°52' E 023°38'5 4.9
2014-Jul-23 04:30N 37°56' E 023°41'0 0.0
2014-Jul-22 17:11N 37°56' E 023°41'2 2.9
2014-Jul-22 16:33N 37°55' E 023°39'1111.3
2014-Jul-22 15:33N 37°48' E 023°28'4 3.8
2014-Jul-22 14:33N 37°45' E 023°26'0 0.0
2014-Jul-22 13:31N 37°45' E 023°26'10 7.8
2014-Jul-22 12:12N 37°35' E 023°25'10 5.4
2014-Jul-22 10:23N 37°26' E 023°32'26 5.5
2014-Jul-22 05:33N 37°52' E 023°38'4 4.5
2014-Jul-22 04:33N 37°56' E 023°41'0 0.0
2014-Jul-21 17:04N 37°56' E 023°41'2 3.3
2014-Jul-21 16:34N 37°55' E 023°39'1211.9
2014-Jul-21 15:33N 37°48' E 023°28'3 2.9
2014-Jul-21 14:24N 37°45' E 023°26'0 0.2
2014-Jul-21 13:04N 37°45' E 023°25'711.9
2014-Jul-21 12:31N 37°38' E 023°26'18 2.6
2014-Jul-21 05:30N 37°53' E 023°39'4 0.3
2014-Jul-20 17:33N 37°56' E 023°41'6 5.8
2014-Jul-20 16:33N 37°52' E 023°35'3 0.1
2014-Jul-19 16:26N 37°55' E 023°39'15 4.4
2014-Jul-19 13:07N 37°45' E 023°25'712.0
2014-Jul-19 12:33N 37°38' E 023°25'7 1.3
2014-Jul-19 07:14N 37°33' E 023°33'912.2
2014-Jul-19 06:30N 37°42' E 023°34'1111.6
2014-Jul-19 05:33N 37°52' E 023°39'4 4.1
2014-Jul-19 04:34N 37°56' E 023°41'0 0.0
2014-Jul-18 17:05N 37°56' E 023°41'4 7.0
2014-Jul-18 16:34N 37°54' E 023°38'1211.9
2014-Jul-18 15:33N 37°46' E 023°26'2 1.6
2014-Jul-18 14:33N 37°45' E 023°26'0 0.0
2014-Jul-18 13:27N 37°45' E 023°26'9 8.4
2014-Jul-18 12:24N 37°36' E 023°26'11 1.8
2014-Jul-18 06:20N 37°44' E 023°36'911.7
2014-Jul-18 05:33N 37°52' E 023°38'4 3.8
2014-Jul-18 04:24N 37°56' E 023°41'2 0.2
2014-Jul-17 16:33N 37°55' E 023°39'1211.8
2014-Jul-17 15:33N 37°47' E 023°27'3 2.9
2014-Jul-17 14:32N 37°45' E 023°26'0 0.0
2014-Jul-17 13:18N 37°45' E 023°26'810.0
2014-Jul-17 12:33N 37°37' E 023°25'10 1.6
2014-Jul-17 06:16N 37°44' E 023°35'811.7
2014-Jul-17 05:33N 37°52' E 023°38'5 5.0
2014-Jul-17 04:33N 37°56' E 023°41'0 0.0
2014-Jul-16 16:33N 37°56' E 023°41'1211.8
2014-Jul-16 15:33N 37°49' E 023°29'5 4.0
2014-Jul-16 14:21N 37°45' E 023°26'7 3.5
2014-Jul-16 12:25N 37°38' E 023°26'11 1.7
2014-Jul-16 06:13N 37°44' E 023°36'811.5
2014-Jul-16 05:34N 37°52' E 023°39'5 4.9
2014-Jul-16 04:33N 37°56' E 023°41'0 0.0
2014-Jul-15 17:05N 37°56' E 023°41'  
Track history (hours):
 
Tides and Currents Weather Stations Pressure Air Temp Water Temp Dewpoint Dewpoint Depression Visibility Wind Speed Wind Dir Waves Ship Positions

Platitera Tonouranon

Last reported at 2014-Jul-25 16:33 UTC. Time now 2014-Jul-25 18:25 UTC.
Position N 37°56' E 023°41'.

; draft 3.8 m.

Type: Ship (hazmat cat A). MMSI: 237038200.

Date/timePositionNaut miles runAvg speedWind from/ knotsBaromVisibWave heightAir tempDewpointWater temp
2014-Jul-25 16:33N 37°56' E 023°41'1211.8
2014-Jul-25 15:33N 37°49' E 023°29'11 3.6
2014-Jul-25 12:31N 37°38' E 023°25'17 2.4
2014-Jul-25 05:33N 37°52' E 023°38'5 4.8
2014-Jul-25 04:33N 37°56' E 023°41'0 0.0
2014-Jul-24 16:33N 37°56' E 023°41'1111.1
2014-Jul-24 15:33N 37°49' E 023°30'6 5.5
2014-Jul-24 14:31N 37°45' E 023°26'0 0.0
2014-Jul-24 13:33N 37°45' E 023°26'6 6.3
2014-Jul-24 12:33N 37°38' E 023°25'16 2.3
2014-Jul-24 05:31N 37°51' E 023°38'5 5.5
2014-Jul-24 04:33N 37°56' E 023°41'3 0.2
2014-Jul-23 16:33N 37°54' E 023°38'1212.0
2014-Jul-23 15:33N 37°47' E 023°26'2 2.0
2014-Jul-23 14:30N 37°45' E 023°26'0 0.0
2014-Jul-23 13:33N 37°45' E 023°26'8 7.6
2014-Jul-23 12:33N 37°37' E 023°26'10 1.6
2014-Jul-23 06:10N 37°45' E 023°35'711.7
2014-Jul-23 05:33N 37°52' E 023°38'5 4.9
2014-Jul-23 04:30N 37°56' E 023°41'0 0.0
2014-Jul-22 17:11N 37°56' E 023°41'2 2.9
2014-Jul-22 16:33N 37°55' E 023°39'1111.3
2014-Jul-22 15:33N 37°48' E 023°28'4 3.8
2014-Jul-22 14:33N 37°45' E 023°26'0 0.0
2014-Jul-22 13:31N 37°45' E 023°26'10 7.8
2014-Jul-22 12:12N 37°35' E 023°25'10 5.4
2014-Jul-22 10:23N 37°26' E 023°32'26 5.5
2014-Jul-22 05:33N 37°52' E 023°38'4 4.5
2014-Jul-22 04:33N 37°56' E 023°41'0 0.0
2014-Jul-21 17:04N 37°56' E 023°41'2 3.3
2014-Jul-21 16:34N 37°55' E 023°39'1211.9
2014-Jul-21 15:33N 37°48' E 023°28'3 2.9
2014-Jul-21 14:24N 37°45' E 023°26'0 0.2
2014-Jul-21 13:04N 37°45' E 023°25'711.9
2014-Jul-21 12:31N 37°38' E 023°26'18 2.6
2014-Jul-21 05:30N 37°53' E 023°39'4 0.3
2014-Jul-20 17:33N 37°56' E 023°41'6 5.8
2014-Jul-20 16:33N 37°52' E 023°35'3 0.1
2014-Jul-19 16:26N 37°55' E 023°39'15 4.4
2014-Jul-19 13:07N 37°45' E 023°25'712.0
2014-Jul-19 12:33N 37°38' E 023°25'7 1.3
2014-Jul-19 07:14N 37°33' E 023°33'912.2
2014-Jul-19 06:30N 37°42' E 023°34'1111.6
2014-Jul-19 05:33N 37°52' E 023°39'4 4.1
2014-Jul-19 04:34N 37°56' E 023°41'0 0.0
2014-Jul-18 17:05N 37°56' E 023°41'4 7.0
2014-Jul-18 16:34N 37°54' E 023°38'1211.9
2014-Jul-18 15:33N 37°46' E 023°26'2 1.6
2014-Jul-18 14:33N 37°45' E 023°26'0 0.0
2014-Jul-18 13:27N 37°45' E 023°26'9 8.4
2014-Jul-18 12:24N 37°36' E 023°26'11 1.8
2014-Jul-18 06:20N 37°44' E 023°36'911.7
2014-Jul-18 05:33N 37°52' E 023°38'4 3.8
2014-Jul-18 04:24N 37°56' E 023°41'2 0.2
2014-Jul-17 16:33N 37°55' E 023°39'1211.8
2014-Jul-17 15:33N 37°47' E 023°27'3 2.9
2014-Jul-17 14:32N 37°45' E 023°26'0 0.0
2014-Jul-17 13:18N 37°45' E 023°26'810.0
2014-Jul-17 12:33N 37°37' E 023°25'10 1.6
2014-Jul-17 06:16N 37°44' E 023°35'811.7
2014-Jul-17 05:33N 37°52' E 023°38'5 5.0
2014-Jul-17 04:33N 37°56' E 023°41'0 0.0
2014-Jul-16 16:33N 37°56' E 023°41'1211.8
2014-Jul-16 15:33N 37°49' E 023°29'5 4.0
2014-Jul-16 14:21N 37°45' E 023°26'7 3.5
2014-Jul-16 12:25N 37°38' E 023°26'11 1.7
2014-Jul-16 06:13N 37°44' E 023°36'811.5
2014-Jul-16 05:34N 37°52' E 023°39'5 4.9
2014-Jul-16 04:33N 37°56' E 023°41'0 0.0
2014-Jul-15 17:05N 37°56' E 023°41'  

Dump ship's entire track history